createdAt,value
2022-11-25T00:01:34.336Z,98264.00
2022-11-25T00:04:02.124Z,98274.00
2022-11-25T00:06:34.414Z,98271.00
2022-11-25T00:09:11.746Z,98270.00
2022-11-25T00:11:42.871Z,98271.00
2022-11-25T00:14:15.612Z,98272.00
2022-11-25T00:16:48.136Z,98251.00
2022-11-25T00:19:16.911Z,98258.00
2022-11-25T00:21:44.301Z,98266.00
2022-11-25T00:24:17.662Z,98273.00
2022-11-25T00:26:45.411Z,98278.00
2022-11-25T00:29:14.245Z,98272.00
2022-11-25T00:31:42.267Z,98286.00
2022-11-25T00:34:14.713Z,98286.00
2022-11-25T00:36:42.578Z,98279.00
2022-11-25T00:39:18.573Z,98282.00
2022-11-25T00:42:05.503Z,98282.00
2022-11-25T00:44:35.894Z,98266.00
2022-11-25T00:47:17.442Z,98269.00
2022-11-25T00:49:52.697Z,98260.00
2022-11-25T00:52:26.846Z,98250.00
2022-11-25T00:54:55.140Z,98246.00
2022-11-25T00:57:24.054Z,98236.00
2022-11-25T00:59:51.614Z,98240.00
2022-11-25T01:02:20.221Z,98247.00
2022-11-25T01:04:47.895Z,98237.00
2022-11-25T01:07:16.101Z,98257.00
2022-11-25T01:09:44.310Z,98264.00
2022-11-25T01:12:12.128Z,98252.00
2022-11-25T01:14:39.742Z,98252.00
2022-11-25T01:17:07.268Z,98246.00
2022-11-25T01:19:38.386Z,98242.00
2022-11-25T01:22:09.443Z,98232.00
2022-11-25T01:24:36.946Z,98235.00
2022-11-25T01:27:04.517Z,98239.00
2022-11-25T01:29:31.881Z,98250.00
2022-11-25T01:31:59.278Z,98252.00
2022-11-25T01:34:28.585Z,98252.00
2022-11-25T01:36:55.977Z,98258.00
2022-11-25T01:39:32.065Z,98254.00
2022-11-25T01:42:02.079Z,98269.00
2022-11-25T01:44:33.075Z,98257.00
2022-11-25T01:47:18.655Z,98265.00
2022-11-25T01:50:05.194Z,98254.00
2022-11-25T01:52:46.502Z,98246.00
2022-11-25T01:55:23.583Z,98243.00
2022-11-25T01:58:00.992Z,98244.00
2022-11-25T02:00:28.494Z,98246.00
2022-11-25T02:02:57.824Z,98251.00
2022-11-25T02:06:08.983Z,98240.00
2022-11-25T02:08:36.623Z,98239.00
2022-11-25T02:11:04.787Z,98244.00
2022-11-25T02:13:33.896Z,98239.00
2022-11-25T02:16:01.359Z,98249.00
2022-11-25T02:18:29.289Z,98241.00
2022-11-25T02:20:56.692Z,98237.00
2022-11-25T02:24:18.224Z,98239.00
2022-11-25T02:26:45.874Z,98235.00
2022-11-25T02:29:13.526Z,98236.00
2022-11-25T02:31:40.878Z,98246.00
2022-11-25T02:34:09.690Z,98244.00
2022-11-25T02:36:37.372Z,98252.00
2022-11-25T02:39:05.351Z,98254.00
2022-11-25T02:41:44.498Z,98261.00
2022-11-25T02:44:12.066Z,98249.00
2022-11-25T02:46:39.566Z,98247.00
2022-11-25T02:49:09.614Z,98247.00
2022-11-25T02:51:42.020Z,98243.00
2022-11-25T02:54:09.875Z,98240.00
2022-11-25T09:06:12.305Z,98518.00
2022-11-25T09:12:36.420Z,98520.00
2022-11-25T09:19:33.787Z,98509.00
2022-11-25T09:27:23.287Z,98509.00
2022-11-25T09:36:33.499Z,98507.00
2022-11-25T09:46:33.139Z,98513.00
2022-11-25T09:49:52.304Z,98513.00
2022-11-25T09:52:58.692Z,98516.00
2022-11-25T09:55:30.634Z,98514.00
2022-11-25T09:58:42.430Z,98522.00
2022-11-25T10:01:26.174Z,98517.00
2022-11-25T10:04:20.296Z,98521.00
2022-11-25T10:06:58.259Z,98526.00
2022-11-25T10:09:34.082Z,98525.00
2022-11-25T10:12:32.539Z,98539.00
2022-11-25T10:15:32.623Z,98539.00
2022-11-25T10:18:42.409Z,98534.00
2022-11-25T10:21:14.133Z,98534.00
2022-11-25T10:23:41.500Z,98539.00
2022-11-25T10:26:22.530Z,98541.00
2022-11-25T10:29:14.736Z,98547.00
2022-11-25T10:31:45.391Z,98536.00
2022-11-25T10:34:39.286Z,98541.00
2022-11-25T10:37:26.140Z,98540.00
2022-11-25T10:39:53.535Z,98539.00
2022-11-25T10:42:27.414Z,98536.00
2022-11-25T10:44:55.911Z,98549.00
2022-11-25T10:48:28.727Z,98540.00
2022-11-25T10:52:00.399Z,98552.00
2022-11-25T10:54:29.665Z,98550.00
2022-11-25T10:57:19.919Z,98558.00
2022-11-25T11:00:01.775Z,98567.00
2022-11-25T11:02:41.727Z,98573.00
2022-11-25T11:05:08.869Z,98581.00
2022-11-25T11:07:45.371Z,98580.00
2022-11-25T11:10:26.639Z,98590.00
2022-11-25T11:13:25.792Z,98587.00
2022-11-25T11:15:54.861Z,98590.00
2022-11-25T11:18:41.968Z,98590.00
2022-11-25T11:21:35.864Z,98584.00
2022-11-25T11:24:38.060Z,98583.00
2022-11-25T11:27:25.723Z,98591.00
2022-11-25T11:30:23.895Z,98592.00
2022-11-25T11:33:36.767Z,98602.00
2022-11-25T11:36:51.601Z,98600.00
2022-11-25T11:40:02.931Z,98603.00
2022-11-25T11:43:20.589Z,98606.00
2022-11-25T11:46:30.517Z,98607.00
2022-11-25T11:49:43.976Z,98607.00
2022-11-25T11:53:05.786Z,98609.00
2022-11-25T11:56:35.988Z,98621.00
2022-11-25T11:59:55.850Z,98604.00
2022-11-25T12:03:18.599Z,98613.00
2022-11-25T12:05:48.201Z,98607.00
2022-11-25T12:08:34.274Z,98611.00
2022-11-25T12:11:13.533Z,98601.00
2022-11-25T12:14:23.547Z,98614.00
2022-11-25T12:16:59.243Z,98620.00
2022-11-25T12:20:07.082Z,98625.00
2022-11-25T12:23:43.836Z,98632.00
2022-11-25T12:26:47.068Z,98640.00
2022-11-25T12:29:44.109Z,98625.00
2022-11-25T12:32:48.494Z,98631.00
2022-11-25T12:35:34.000Z,98634.00
2022-11-25T12:38:47.803Z,98644.00
2022-11-25T12:41:59.613Z,98634.00
2022-11-25T12:45:11.986Z,98657.00
2022-11-25T12:47:39.258Z,98656.00
2022-11-25T12:50:14.463Z,98659.00
2022-11-25T12:53:11.750Z,98664.00
2022-11-25T12:55:40.707Z,98667.00
2022-11-25T12:59:33.630Z,98660.00
2022-11-25T13:03:14.139Z,98663.00
2022-11-25T13:06:27.133Z,98666.00
2022-11-25T13:09:43.339Z,98668.00
2022-11-25T13:13:01.646Z,98674.00
2022-11-25T13:15:44.967Z,98671.00
2022-11-25T13:18:29.082Z,98671.00
2022-11-25T13:21:05.327Z,98669.00
2022-11-25T13:23:57.305Z,98677.00
2022-11-25T13:26:45.820Z,98684.00
2022-11-25T13:29:12.847Z,98691.00
2022-11-25T13:32:03.285Z,98692.00
2022-11-25T13:34:34.296Z,98690.00
2022-11-25T13:37:33.510Z,98693.00
2022-11-25T13:40:39.129Z,98691.00
2022-11-25T13:43:22.567Z,98703.00
2022-11-25T13:45:50.221Z,98704.00
2022-11-25T13:48:30.600Z,98710.00
2022-11-25T13:51:24.819Z,98703.00
2022-11-25T13:54:06.411Z,98709.00
2022-11-25T13:56:37.517Z,98711.00
2022-11-25T13:59:10.730Z,98716.00
2022-11-25T14:01:46.690Z,98702.00
2022-11-25T14:04:16.221Z,98711.00
2022-11-25T14:07:27.998Z,98709.00
2022-11-25T14:10:45.867Z,98721.00
2022-11-25T14:14:04.135Z,98720.00
2022-11-25T14:17:24.644Z,98723.00
2022-11-25T14:20:23.059Z,98731.00
2022-11-25T14:23:52.234Z,98738.00
2022-11-25T14:26:49.647Z,98746.00
2022-11-25T14:29:32.564Z,98750.00
2022-11-25T14:32:23.108Z,98748.00
2022-11-25T14:35:09.740Z,98739.00
2022-11-25T14:38:07.739Z,98751.00
2022-11-25T14:41:19.858Z,98744.00
2022-11-25T14:44:04.663Z,98753.00
2022-11-25T14:46:32.209Z,98765.00
2022-11-25T14:49:07.700Z,98765.00
2022-11-25T14:51:39.274Z,98768.00
2022-11-25T14:54:10.392Z,98763.00
2022-11-25T14:56:39.240Z,98765.00
2022-11-25T14:59:10.482Z,98761.00
2022-11-25T15:01:50.227Z,98770.00
2022-11-25T15:04:25.407Z,98768.00
2022-11-25T15:07:01.892Z,98782.00
2022-11-25T15:09:42.258Z,98791.00
2022-11-25T15:12:20.365Z,98784.00
2022-11-25T15:14:55.714Z,98781.00
2022-11-25T15:17:37.340Z,98793.00
2022-11-25T15:20:17.576Z,98782.00
2022-11-25T15:22:53.958Z,98801.00
2022-11-25T15:25:21.571Z,98801.00
2022-11-25T15:27:53.184Z,98811.00
2022-11-25T15:30:31.835Z,98808.00
2022-11-25T15:32:59.531Z,98805.00
2022-11-25T15:35:27.955Z,98817.00
2022-11-25T15:37:55.367Z,98829.00
2022-11-25T15:40:44.374Z,98835.00
2022-11-25T15:43:30.280Z,98826.00
2022-11-25T15:46:05.789Z,98829.00
2022-11-25T15:48:46.190Z,98829.00
2022-11-25T15:51:48.447Z,98830.00
2022-11-25T15:54:42.554Z,98843.00
2022-11-25T15:57:37.426Z,98846.00
2022-11-25T16:00:23.250Z,98850.00
2022-11-25T16:02:59.570Z,98857.00
2022-11-25T16:05:37.507Z,98844.00
2022-11-25T16:08:33.753Z,98843.00
2022-11-25T16:11:19.356Z,98848.00
2022-11-25T16:13:50.372Z,98853.00
2022-11-25T16:16:31.297Z,98852.00
2022-11-25T16:19:16.624Z,98858.00
2022-11-25T16:21:54.635Z,98861.00
2022-11-25T16:24:41.765Z,98873.00
2022-11-25T16:27:23.583Z,98880.00
2022-11-25T16:30:20.370Z,98873.00
2022-11-25T16:32:47.632Z,98877.00
2022-11-25T16:35:22.176Z,98889.00
2022-11-25T16:37:49.943Z,98891.00
2022-11-25T16:40:19.145Z,98896.00
2022-11-25T16:42:53.357Z,98900.00
2022-11-25T16:45:28.272Z,98901.00
2022-11-25T16:47:55.958Z,98912.00
2022-11-25T16:50:24.035Z,98907.00
2022-11-25T16:52:51.458Z,98918.00
2022-11-25T16:55:19.011Z,98923.00
2022-11-25T16:57:46.995Z,98922.00
2022-11-25T17:00:18.100Z,98925.00
2022-11-25T17:02:45.755Z,98925.00
2022-11-25T17:05:25.675Z,98923.00
2022-11-25T17:07:53.177Z,98944.00
2022-11-25T17:10:21.632Z,98948.00
2022-11-25T17:12:50.828Z,98939.00
2022-11-25T17:15:35.941Z,98943.00
2022-11-25T17:18:07.073Z,98952.00
2022-11-25T17:20:34.946Z,98960.00
2022-11-25T17:23:02.670Z,98962.00
2022-11-25T17:25:36.536Z,98962.00
2022-11-25T17:28:04.811Z,98959.00
2022-11-25T17:30:32.497Z,98965.00
2022-11-25T17:33:18.348Z,98965.00
2022-11-25T17:35:46.400Z,98962.00
2022-11-25T17:38:20.147Z,98971.00
2022-11-25T17:40:47.916Z,98976.00
2022-11-25T17:43:20.989Z,98979.00
2022-11-25T17:45:48.344Z,98984.00
2022-11-25T17:48:18.311Z,98991.00
2022-11-25T17:50:46.875Z,98998.00
2022-11-25T17:53:14.231Z,98999.00
2022-11-25T17:55:42.009Z,99009.00
2022-11-25T17:58:14.669Z,99013.00
2022-11-25T18:00:44.924Z,99022.00
2022-11-25T18:03:16.361Z,99023.00
2022-11-25T18:05:44.014Z,99038.00
2022-11-25T18:08:11.307Z,99036.00
2022-11-25T18:10:39.619Z,99040.00
2022-11-25T18:13:06.963Z,99048.00
2022-11-25T18:15:34.886Z,99050.00
2022-11-25T18:18:22.193Z,99051.00
2022-11-25T18:20:50.856Z,99049.00
2022-11-25T18:23:19.471Z,99057.00
2022-11-25T18:25:47.407Z,99065.00
2022-11-25T18:28:26.903Z,99061.00
2022-11-25T18:30:58.430Z,99043.00
2022-11-25T18:33:25.847Z,99063.00
2022-11-25T18:35:53.134Z,99066.00
2022-11-25T18:38:20.404Z,99062.00
2022-11-25T18:40:53.299Z,99067.00
2022-11-25T18:43:26.622Z,99081.00
2022-11-25T18:45:54.404Z,99086.00
2022-11-25T18:48:27.700Z,99097.00
2022-11-25T18:50:57.043Z,99085.00
2022-11-25T18:53:24.351Z,99102.00
2022-11-25T18:55:52.168Z,99106.00
